sensor_id;sensor_type;location;lat;lon;timestamp;pressure;altitude;pressure_sealevel;temperature;humidity
62055;BME280;48653;51.742;-1.256;2023-02-11T00:03:44;102938.82;;;9.00;56.36
62055;BME280;48653;51.742;-1.256;2023-02-11T00:06:10;102942.69;;;9.34;56.51
62055;BME280;48653;51.742;-1.256;2023-02-11T00:08:35;102939.68;;;9.18;57.10
62055;BME280;48653;51.742;-1.256;2023-02-11T00:11:00;102940.66;;;9.60;55.48
62055;BME280;48653;51.742;-1.256;2023-02-11T00:13:26;102938.41;;;10.08;54.76
62055;BME280;48653;51.742;-1.256;2023-02-11T00:15:51;102939.29;;;10.20;54.46
62055;BME280;48653;51.742;-1.256;2023-02-11T00:18:16;102940.68;;;10.16;54.37
62055;BME280;48653;51.742;-1.256;2023-02-11T00:20:42;102938.38;;;9.82;54.55
62055;BME280;48653;51.742;-1.256;2023-02-11T00:23:07;102938.68;;;9.18;56.75
62055;BME280;48653;51.742;-1.256;2023-02-11T00:25:33;102932.96;;;9.80;55.18
62055;BME280;48653;51.742;-1.256;2023-02-11T00:27:58;102931.66;;;10.05;54.67
62055;BME280;48653;51.742;-1.256;2023-02-11T00:30:24;102925.42;;;10.01;53.88
62055;BME280;48653;51.742;-1.256;2023-02-11T00:32:48;102922.99;;;9.51;55.92
62055;BME280;48653;51.742;-1.256;2023-02-11T00:35:14;102924.74;;;9.33;56.48
62055;BME280;48653;51.742;-1.256;2023-02-11T00:37:40;102929.76;;;8.94;56.30
62055;BME280;48653;51.742;-1.256;2023-02-11T00:40:06;102929.32;;;9.28;56.60
62055;BME280;48653;51.742;-1.256;2023-02-11T00:42:31;102929.72;;;8.80;57.62
62055;BME280;48653;51.742;-1.256;2023-02-11T00:44:56;102926.43;;;9.18;56.89
62055;BME280;48653;51.742;-1.256;2023-02-11T00:47:21;102924.02;;;9.75;55.73
62055;BME280;48653;51.742;-1.256;2023-02-11T00:49:46;102921.41;;;9.05;57.20
62055;BME280;48653;51.742;-1.256;2023-02-11T00:52:12;102924.22;;;8.91;57.26
62055;BME280;48653;51.742;-1.256;2023-02-11T00:54:38;102926.85;;;8.58;59.39
62055;BME280;48653;51.742;-1.256;2023-02-11T00:57:03;102925.73;;;8.90;57.88
62055;BME280;48653;51.742;-1.256;2023-02-11T00:59:28;102929.66;;;8.82;57.43
62055;BME280;48653;51.742;-1.256;2023-02-11T01:01:53;102923.26;;;9.42;55.84
62055;BME280;48653;51.742;-1.256;2023-02-11T01:04:21;102918.06;;;9.14;56.36
62055;BME280;48653;51.742;-1.256;2023-02-11T01:06:44;102914.47;;;9.34;56.12
62055;BME280;48653;51.742;-1.256;2023-02-11T01:09:09;102910.05;;;9.47;55.58
62055;BME280;48653;51.742;-1.256;2023-02-11T01:11:35;102906.00;;;9.10;55.35
62055;BME280;48653;51.742;-1.256;2023-02-11T01:14:00;102905.07;;;9.51;53.73
62055;BME280;48653;51.742;-1.256;2023-02-11T01:16:26;102906.30;;;9.45;54.38
62055;BME280;48653;51.742;-1.256;2023-02-11T01:18:51;102898.64;;;9.12;56.36
62055;BME280;48653;51.742;-1.256;2023-02-11T01:21:16;102896.05;;;9.00;55.76
62055;BME280;48653;51.742;-1.256;2023-02-11T01:23:42;102898.82;;;8.51;56.82
62055;BME280;48653;51.742;-1.256;2023-02-11T01:26:08;102899.16;;;8.86;55.76
62055;BME280;48653;51.742;-1.256;2023-02-11T01:28:33;102898.84;;;9.10;54.74
62055;BME280;48653;51.742;-1.256;2023-02-11T01:30:59;102901.84;;;8.85;56.21
62055;BME280;48653;51.742;-1.256;2023-02-11T01:33:24;102903.25;;;8.60;56.26
62055;BME280;48653;51.742;-1.256;2023-02-11T01:35:50;102901.91;;;8.40;57.36
62055;BME280;48653;51.742;-1.256;2023-02-11T01:38:16;102901.45;;;8.87;56.03
62055;BME280;48653;51.742;-1.256;2023-02-11T01:40:46;102896.93;;;8.75;55.24
62055;BME280;48653;51.742;-1.256;2023-02-11T01:43:08;102900.29;;;9.28;54.04
62055;BME280;48653;51.742;-1.256;2023-02-11T01:47:58;102904.81;;;9.24;53.59
62055;BME280;48653;51.742;-1.256;2023-02-11T01:50:23;102898.57;;;9.09;53.86
62055;BME280;48653;51.742;-1.256;2023-02-11T01:52:49;102894.45;;;9.38;53.47
62055;BME280;48653;51.742;-1.256;2023-02-11T01:55:15;102884.83;;;9.81;53.08
62055;BME280;48653;51.742;-1.256;2023-02-11T01:57:43;102879.42;;;8.93;54.50
62055;BME280;48653;51.742;-1.256;2023-02-11T02:00:10;102872.32;;;8.58;55.59
62055;BME280;48653;51.742;-1.256;2023-02-11T02:02:37;102872.49;;;8.73;55.12
62055;BME280;48653;51.742;-1.256;2023-02-11T02:05:02;102868.69;;;8.54;54.37
62055;BME280;48653;51.742;-1.256;2023-02-11T02:07:29;102873.08;;;8.37;54.61
62055;BME280;48653;51.742;-1.256;2023-02-11T02:09:54;102872.24;;;8.10;56.26
62055;BME280;48653;51.742;-1.256;2023-02-11T02:12:14;102870.36;;;8.11;56.58
62055;BME280;48653;51.742;-1.256;2023-02-11T02:14:40;102870.88;;;8.35;55.75
62055;BME280;48653;51.742;-1.256;2023-02-11T02:17:05;102869.51;;;8.51;55.03
62055;BME280;48653;51.742;-1.256;2023-02-11T02:19:43;102864.00;;;8.17;54.65
62055;BME280;48653;51.742;-1.256;2023-02-11T02:22:11;102865.49;;;8.49;54.51
62055;BME280;48653;51.742;-1.256;2023-02-11T02:24:34;102864.85;;;7.63;55.98
62055;BME280;48653;51.742;-1.256;2023-02-11T02:31:50;102868.72;;;8.19;55.09
62055;BME280;48653;51.742;-1.256;2023-02-11T02:34:05;102880.01;;;8.66;54.28
62055;BME280;48653;51.742;-1.256;2023-02-11T02:36:33;102882.31;;;8.51;54.71
62055;BME280;48653;51.742;-1.256;2023-02-11T02:38:56;102882.39;;;8.24;54.36
62055;BME280;48653;51.742;-1.256;2023-02-11T02:41:21;102879.11;;;8.77;53.37
62055;BME280;48653;51.742;-1.256;2023-02-11T02:43:47;102880.16;;;8.01;56.36
62055;BME280;48653;51.742;-1.256;2023-02-11T02:46:11;102877.68;;;8.20;55.38
62055;BME280;48653;51.742;-1.256;2023-02-11T02:48:39;102877.86;;;8.18;56.90
62055;BME280;48653;51.742;-1.256;2023-02-11T02:51:07;102875.90;;;8.33;56.31
62055;BME280;48653;51.742;-1.256;2023-02-11T02:53:30;102879.90;;;8.21;56.12
62055;BME280;48653;51.742;-1.256;2023-02-11T02:55:57;102876.25;;;8.26;56.57
62055;BME280;48653;51.742;-1.256;2023-02-11T02:58:29;102875.05;;;8.44;56.18
62055;BME280;48653;51.742;-1.256;2023-02-11T03:00:46;102869.83;;;8.22;56.74
62055;BME280;48653;51.742;-1.256;2023-02-11T03:03:16;102871.11;;;8.18;56.28
62055;BME280;48653;51.742;-1.256;2023-02-11T03:05:40;102873.75;;;8.05;56.97
62055;BME280;48653;51.742;-1.256;2023-02-11T03:08:02;102874.02;;;7.64;59.11
62055;BME280;48653;51.742;-1.256;2023-02-11T03:10:26;102871.06;;;7.84;57.04
62055;BME280;48653;51.742;-1.256;2023-02-11T03:12:50;102870.11;;;7.91;58.19
62055;BME280;48653;51.742;-1.256;2023-02-11T03:15:16;102866.12;;;7.72;58.62
62055;BME280;48653;51.742;-1.256;2023-02-11T03:17:47;102862.55;;;8.08;57.78
62055;BME280;48653;51.742;-1.256;2023-02-11T03:20:08;102866.97;;;8.24;57.24
62055;BME280;48653;51.742;-1.256;2023-02-11T03:22:34;102860.59;;;7.99;58.45
62055;BME280;48653;51.742;-1.256;2023-02-11T03:24:56;102860.55;;;8.02;58.45
62055;BME280;48653;51.742;-1.256;2023-02-11T03:27:26;102857.93;;;8.25;58.05
62055;BME280;48653;51.742;-1.256;2023-02-11T03:29:51;102858.45;;;8.08;58.36
62055;BME280;48653;51.742;-1.256;2023-02-11T03:32:15;102860.43;;;8.06;58.03
62055;BME280;48653;51.742;-1.256;2023-02-11T03:34:42;102857.90;;;7.96;58.91
62055;BME280;48653;51.742;-1.256;2023-02-11T03:37:08;102852.33;;;8.21;58.39
62055;BME280;48653;51.742;-1.256;2023-02-11T03:39:34;102847.34;;;8.33;57.89
62055;BME280;48653;51.742;-1.256;2023-02-11T03:41:55;102841.33;;;8.27;58.11
62055;BME280;48653;51.742;-1.256;2023-02-11T03:44:20;102845.41;;;8.09;57.54
62055;BME280;48653;51.742;-1.256;2023-02-11T03:46:49;102845.02;;;7.60;59.44
62055;BME280;48653;51.742;-1.256;2023-02-11T03:49:11;102847.04;;;8.80;57.27
62055;BME280;48653;51.742;-1.256;2023-02-11T03:51:36;102843.42;;;7.79;59.74
62055;BME280;48653;51.742;-1.256;2023-02-11T03:54:05;102847.36;;;8.54;57.90
62055;BME280;48653;51.742;-1.256;2023-02-11T03:56:29;102849.85;;;8.52;57.10
62055;BME280;48653;51.742;-1.256;2023-02-11T03:58:52;102850.79;;;8.53;57.35
62055;BME280;48653;51.742;-1.256;2023-02-11T04:01:17;102848.99;;;8.27;57.55
62055;BME280;48653;51.742;-1.256;2023-02-11T04:06:08;102849.31;;;7.88;58.21
62055;BME280;48653;51.742;-1.256;2023-02-11T04:08:34;102853.73;;;7.31;59.01
62055;BME280;48653;51.742;-1.256;2023-02-11T04:10:59;102854.82;;;8.33;57.20
62055;BME280;48653;51.742;-1.256;2023-02-11T04:13:25;102858.62;;;7.95;58.14
62055;BME280;48653;51.742;-1.256;2023-02-11T04:15:49;102857.70;;;8.16;57.39
62055;BME280;48653;51.742;-1.256;2023-02-11T04:18:15;102857.09;;;8.85;57.00
62055;BME280;48653;51.742;-1.256;2023-02-11T04:20:40;102853.14;;;7.89;58.98
62055;BME280;48653;51.742;-1.256;2023-02-11T04:23:05;102853.31;;;8.74;57.26
62055;BME280;48653;51.742;-1.256;2023-02-11T04:25:31;102850.09;;;7.94;58.24
62055;BME280;48653;51.742;-1.256;2023-02-11T04:27:56;102857.21;;;8.23;57.38
62055;BME280;48653;51.742;-1.256;2023-02-11T04:30:22;102858.55;;;8.38;56.62
62055;BME280;48653;51.742;-1.256;2023-02-11T04:32:47;102856.29;;;8.79;55.97
62055;BME280;48653;51.742;-1.256;2023-02-11T04:35:12;102858.35;;;8.90;56.16
62055;BME280;48653;51.742;-1.256;2023-02-11T04:37:37;102858.82;;;8.18;57.62
62055;BME280;48653;51.742;-1.256;2023-02-11T04:40:03;102861.10;;;8.54;56.25
62055;BME280;48653;51.742;-1.256;2023-02-11T04:42:28;102865.95;;;8.88;55.51
62055;BME280;48653;51.742;-1.256;2023-02-11T04:44:54;102871.94;;;9.19;54.83
62055;BME280;48653;51.742;-1.256;2023-02-11T04:47:20;102874.18;;;8.79;55.76
62055;BME280;48653;51.742;-1.256;2023-02-11T04:49:45;102874.67;;;8.73;55.65
62055;BME280;48653;51.742;-1.256;2023-02-11T04:52:11;102876.28;;;8.88;55.37
62055;BME280;48653;51.742;-1.256;2023-02-11T04:54:37;102877.28;;;8.51;55.93
62055;BME280;48653;51.742;-1.256;2023-02-11T04:57:02;102888.19;;;8.98;56.33
62055;BME280;48653;51.742;-1.256;2023-02-11T04:59:28;102895.65;;;8.68;56.60
62055;BME280;48653;51.742;-1.256;2023-02-11T05:01:53;102898.55;;;8.62;56.12
62055;BME280;48653;51.742;-1.256;2023-02-11T05:04:19;102898.82;;;9.26;54.73
62055;BME280;48653;51.742;-1.256;2023-02-11T05:06:49;102892.35;;;9.11;55.00
62055;BME280;48653;51.742;-1.256;2023-02-11T05:09:10;102891.22;;;9.33;54.72
62055;BME280;48653;51.742;-1.256;2023-02-11T05:11:35;102893.83;;;8.69;55.97
62055;BME280;48653;51.742;-1.256;2023-02-11T05:14:00;102893.51;;;9.28;54.58
62055;BME280;48653;51.742;-1.256;2023-02-11T05:16:26;102898.32;;;9.02;54.35
62055;BME280;48653;51.742;-1.256;2023-02-11T05:18:51;102897.21;;;9.24;54.46
62055;BME280;48653;51.742;-1.256;2023-02-11T05:21:18;102896.06;;;9.50;53.99
62055;BME280;48653;51.742;-1.256;2023-02-11T05:23:43;102894.36;;;9.63;53.71
62055;BME280;48653;51.742;-1.256;2023-02-11T05:26:08;102892.55;;;9.08;54.22
62055;BME280;48653;51.742;-1.256;2023-02-11T05:28:33;102889.39;;;8.79;54.64
62055;BME280;48653;51.742;-1.256;2023-02-11T05:30:58;102893.34;;;9.29;54.38
62055;BME280;48653;51.742;-1.256;2023-02-11T05:33:24;102894.06;;;9.16;53.69
62055;BME280;48653;51.742;-1.256;2023-02-11T05:35:49;102898.93;;;9.43;53.77
62055;BME280;48653;51.742;-1.256;2023-02-11T05:38:14;102901.86;;;8.86;53.93
62055;BME280;48653;51.742;-1.256;2023-02-11T05:40:40;102908.44;;;9.30;54.03
62055;BME280;48653;51.742;-1.256;2023-02-11T05:43:05;102908.56;;;9.62;54.12
62055;BME280;48653;51.742;-1.256;2023-02-11T05:45:30;102911.13;;;9.19;53.93
62055;BME280;48653;51.742;-1.256;2023-02-11T05:47:56;102914.61;;;9.35;54.24
62055;BME280;48653;51.742;-1.256;2023-02-11T05:50:22;102914.25;;;8.98;54.36
62055;BME280;48653;51.742;-1.256;2023-02-11T05:52:47;102911.94;;;9.21;54.34
62055;BME280;48653;51.742;-1.256;2023-02-11T05:55:12;102914.65;;;8.75;55.38
62055;BME280;48653;51.742;-1.256;2023-02-11T05:57:37;102908.27;;;8.90;55.15
62055;BME280;48653;51.742;-1.256;2023-02-11T06:00:04;102910.02;;;8.58;55.74
62055;BME280;48653;51.742;-1.256;2023-02-11T06:02:28;102911.27;;;8.57;55.68
62055;BME280;48653;51.742;-1.256;2023-02-11T06:04:53;102914.55;;;8.67;55.45
62055;BME280;48653;51.742;-1.256;2023-02-11T06:07:18;102918.93;;;9.51;53.85
62055;BME280;48653;51.742;-1.256;2023-02-11T06:09:43;102922.16;;;9.23;53.66
62055;BME280;48653;51.742;-1.256;2023-02-11T06:12:10;102923.68;;;9.25;54.05
62055;BME280;48653;51.742;-1.256;2023-02-11T06:14:35;102919.69;;;8.95;54.00
62055;BME280;48653;51.742;-1.256;2023-02-11T06:17:00;102916.06;;;9.26;53.52
62055;BME280;48653;51.742;-1.256;2023-02-11T06:19:25;102912.71;;;9.16;53.95
62055;BME280;48653;51.742;-1.256;2023-02-11T06:21:51;102917.79;;;9.15;53.90
62055;BME280;48653;51.742;-1.256;2023-02-11T06:24:16;102920.73;;;9.17;53.81
62055;BME280;48653;51.742;-1.256;2023-02-11T06:26:42;102926.38;;;9.38;53.86
62055;BME280;48653;51.742;-1.256;2023-02-11T06:29:07;102928.41;;;8.91;53.72
62055;BME280;48653;51.742;-1.256;2023-02-11T06:31:38;102922.66;;;9.35;53.81
62055;BME280;48653;51.742;-1.256;2023-02-11T06:33:58;102915.61;;;9.80;52.51
62055;BME280;48653;51.742;-1.256;2023-02-11T06:36:23;102915.69;;;9.09;53.68
62055;BME280;48653;51.742;-1.256;2023-02-11T06:38:50;102918.42;;;8.93;54.71
62055;BME280;48653;51.742;-1.256;2023-02-11T06:41:17;102923.35;;;9.78;52.96
62055;BME280;48653;51.742;-1.256;2023-02-11T06:43:41;102922.72;;;9.24;53.96
62055;BME280;48653;51.742;-1.256;2023-02-11T06:46:06;102918.19;;;8.85;54.29
62055;BME280;48653;51.742;-1.256;2023-02-11T06:48:31;102913.73;;;9.32;53.91
62055;BME280;48653;51.742;-1.256;2023-02-11T06:51:00;102911.33;;;9.08;54.61
62055;BME280;48653;51.742;-1.256;2023-02-11T06:53:22;102913.60;;;8.52;55.59
62055;BME280;48653;51.742;-1.256;2023-02-11T06:55:47;102913.79;;;8.91;55.39
62055;BME280;48653;51.742;-1.256;2023-02-11T06:58:12;102915.86;;;8.49;55.06
62055;BME280;48653;51.742;-1.256;2023-02-11T07:00:37;102912.90;;;9.27;53.98
62055;BME280;48653;51.742;-1.256;2023-02-11T07:03:03;102916.30;;;8.77;54.49
62055;BME280;48653;51.742;-1.256;2023-02-11T07:05:28;102918.66;;;9.32;53.34
62055;BME280;48653;51.742;-1.256;2023-02-11T07:07:53;102923.91;;;8.88;53.80
62055;BME280;48653;51.742;-1.256;2023-02-11T07:10:18;102921.67;;;8.97;54.09
62055;BME280;48653;51.742;-1.256;2023-02-11T07:12:43;102922.43;;;9.68;53.67
62055;BME280;48653;51.742;-1.256;2023-02-11T07:15:09;102924.71;;;9.24;53.89
62055;BME280;48653;51.742;-1.256;2023-02-11T07:17:35;102929.38;;;9.26;53.02
62055;BME280;48653;51.742;-1.256;2023-02-11T07:20:01;102929.29;;;9.37;53.64
62055;BME280;48653;51.742;-1.256;2023-02-11T07:22:26;102934.49;;;9.41;53.19
62055;BME280;48653;51.742;-1.256;2023-02-11T07:24:51;102939.62;;;9.64;52.82
62055;BME280;48653;51.742;-1.256;2023-02-11T07:27:16;102939.96;;;9.13;53.73
62055;BME280;48653;51.742;-1.256;2023-02-11T07:29:42;102942.53;;;9.72;52.95
62055;BME280;48653;51.742;-1.256;2023-02-11T07:32:07;102942.55;;;9.54;53.15
62055;BME280;48653;51.742;-1.256;2023-02-11T07:34:32;102939.77;;;8.86;53.93
62055;BME280;48653;51.742;-1.256;2023-02-11T07:36:58;102944.26;;;9.57;52.74
62055;BME280;48653;51.742;-1.256;2023-02-11T07:39:23;102946.99;;;9.17;53.39
62055;BME280;48653;51.742;-1.256;2023-02-11T07:41:48;102954.90;;;9.38;52.63
62055;BME280;48653;51.742;-1.256;2023-02-11T07:44:14;102954.27;;;8.94;53.40
62055;BME280;48653;51.742;-1.256;2023-02-11T07:46:39;102958.59;;;9.25;52.86
62055;BME280;48653;51.742;-1.256;2023-02-11T07:49:04;102956.27;;;9.15;52.89
62055;BME280;48653;51.742;-1.256;2023-02-11T07:51:30;102955.61;;;9.79;52.12
62055;BME280;48653;51.742;-1.256;2023-02-11T07:53:58;102953.96;;;8.97;53.07
62055;BME280;48653;51.742;-1.256;2023-02-11T07:56:22;102957.53;;;9.44;52.38
62055;BME280;48653;51.742;-1.256;2023-02-11T07:58:47;102961.80;;;9.47;52.65
62055;BME280;48653;51.742;-1.256;2023-02-11T08:01:14;102960.19;;;9.35;52.92
62055;BME280;48653;51.742;-1.256;2023-02-11T08:03:38;102960.85;;;9.59;52.87
62055;BME280;48653;51.742;-1.256;2023-02-11T08:06:02;102960.44;;;9.48;53.10
62055;BME280;48653;51.742;-1.256;2023-02-11T08:08:27;102963.84;;;9.25;52.61
62055;BME280;48653;51.742;-1.256;2023-02-11T08:10:52;102968.02;;;9.22;52.99
62055;BME280;48653;51.742;-1.256;2023-02-11T08:13:17;102972.26;;;9.46;52.87
62055;BME280;48653;51.742;-1.256;2023-02-11T08:15:42;102970.98;;;9.49;53.01
62055;BME280;48653;51.742;-1.256;2023-02-11T08:18:07;102974.27;;;9.78;52.48
62055;BME280;48653;51.742;-1.256;2023-02-11T08:20:33;102972.41;;;9.16;52.54
62055;BME280;48653;51.742;-1.256;2023-02-11T08:22:58;102970.83;;;9.40;52.51
62055;BME280;48653;51.742;-1.256;2023-02-11T08:25:23;102967.25;;;9.65;52.38
62055;BME280;48653;51.742;-1.256;2023-02-11T08:27:49;102965.69;;;9.63;52.32
62055;BME280;48653;51.742;-1.256;2023-02-11T08:30:14;102969.95;;;9.23;53.19
62055;BME280;48653;51.742;-1.256;2023-02-11T08:32:39;102972.92;;;9.31;52.63
62055;BME280;48653;51.742;-1.256;2023-02-11T08:35:05;102970.12;;;8.68;53.47
62055;BME280;48653;51.742;-1.256;2023-02-11T08:37:30;102969.68;;;9.23;52.75
62055;BME280;48653;51.742;-1.256;2023-02-11T08:39:55;102964.78;;;9.06;52.41
62055;BME280;48653;51.742;-1.256;2023-02-11T08:42:20;102966.59;;;9.42;51.84
62055;BME280;48653;51.742;-1.256;2023-02-11T08:44:45;102964.88;;;9.78;51.51
62055;BME280;48653;51.742;-1.256;2023-02-11T08:47:11;102969.18;;;9.60;51.77
62055;BME280;48653;51.742;-1.256;2023-02-11T08:49:36;102969.73;;;9.71;51.64
62055;BME280;48653;51.742;-1.256;2023-02-11T08:52:01;102965.58;;;9.19;52.39
62055;BME280;48653;51.742;-1.256;2023-02-11T08:54:26;102970.46;;;9.75;51.65
62055;BME280;48653;51.742;-1.256;2023-02-11T08:56:51;102977.54;;;9.34;52.06
62055;BME280;48653;51.742;-1.256;2023-02-11T08:59:16;102981.11;;;9.68;51.40
62055;BME280;48653;51.742;-1.256;2023-02-11T09:01:43;102986.24;;;9.29;51.77
62055;BME280;48653;51.742;-1.256;2023-02-11T09:04:12;102985.43;;;9.45;52.21
62055;BME280;48653;51.742;-1.256;2023-02-11T09:06:32;102984.64;;;9.35;52.07
62055;BME280;48653;51.742;-1.256;2023-02-11T09:08:57;102989.98;;;9.37;52.76
62055;BME280;48653;51.742;-1.256;2023-02-11T09:11:25;102987.85;;;9.49;51.81
62055;BME280;48653;51.742;-1.256;2023-02-11T09:13:48;102993.14;;;9.48;51.69
62055;BME280;48653;51.742;-1.256;2023-02-11T09:16:17;102997.88;;;9.73;51.36
62055;BME280;48653;51.742;-1.256;2023-02-11T09:18:37;102998.50;;;10.23;50.76
62055;BME280;48653;51.742;-1.256;2023-02-11T09:21:05;102995.33;;;9.76;51.18
62055;BME280;48653;51.742;-1.256;2023-02-11T09:23:28;102991.49;;;9.53;51.40
62055;BME280;48653;51.742;-1.256;2023-02-11T09:25:53;102988.35;;;9.76;50.93
62055;BME280;48653;51.742;-1.256;2023-02-11T09:28:18;102988.20;;;9.17;52.31
62055;BME280;48653;51.742;-1.256;2023-02-11T09:30:43;102986.38;;;9.33;51.94
62055;BME280;48653;51.742;-1.256;2023-02-11T09:33:08;102984.86;;;9.14;51.81
62055;BME280;48653;51.742;-1.256;2023-02-11T09:35:33;102984.74;;;8.89;51.50
62055;BME280;48653;51.742;-1.256;2023-02-11T09:37:59;102982.13;;;8.78;52.63
62055;BME280;48653;51.742;-1.256;2023-02-11T09:40:24;102981.31;;;8.71;53.31
62055;BME280;48653;51.742;-1.256;2023-02-11T09:42:51;102983.47;;;8.41;53.49
62055;BME280;48653;51.742;-1.256;2023-02-11T09:45:18;102989.20;;;8.92;52.27
62055;BME280;48653;51.742;-1.256;2023-02-11T09:47:46;102991.65;;;9.17;52.55
62055;BME280;48653;51.742;-1.256;2023-02-11T09:50:09;102999.87;;;9.14;52.05
62055;BME280;48653;51.742;-1.256;2023-02-11T09:52:36;103002.62;;;9.21;51.34
62055;BME280;48653;51.742;-1.256;2023-02-11T09:54:56;103003.16;;;9.20;50.72
62055;BME280;48653;51.742;-1.256;2023-02-11T09:57:21;103002.43;;;9.87;50.10
62055;BME280;48653;51.742;-1.256;2023-02-11T09:59:46;102999.58;;;9.11;51.00
62055;BME280;48653;51.742;-1.256;2023-02-11T10:02:18;102996.63;;;10.23;49.43
62055;BME280;48653;51.742;-1.256;2023-02-11T10:07:06;103003.04;;;10.12;49.13
62055;BME280;48653;51.742;-1.256;2023-02-11T10:09:35;103003.98;;;10.17;48.83
62055;BME280;48653;51.742;-1.256;2023-02-11T10:11:57;103008.31;;;10.49;48.59
62055;BME280;48653;51.742;-1.256;2023-02-11T10:14:28;103007.50;;;10.03;48.07
62055;BME280;48653;51.742;-1.256;2023-02-11T10:16:53;103007.27;;;10.00;48.52
62055;BME280;48653;51.742;-1.256;2023-02-11T10:19:19;103010.33;;;9.41;49.81
62055;BME280;48653;51.742;-1.256;2023-02-11T10:21:39;103013.36;;;10.05;48.79
62055;BME280;48653;51.742;-1.256;2023-02-11T10:24:00;103017.51;;;10.76;48.32
62055;BME280;48653;51.742;-1.256;2023-02-11T10:26:30;103019.69;;;10.73;47.83
62055;BME280;48653;51.742;-1.256;2023-02-11T10:28:51;103018.97;;;10.29;47.76
62055;BME280;48653;51.742;-1.256;2023-02-11T10:31:16;103021.15;;;11.02;47.69
62055;BME280;48653;51.742;-1.256;2023-02-11T10:33:43;103013.46;;;10.48;48.14
62055;BME280;48653;51.742;-1.256;2023-02-11T10:36:04;103013.90;;;10.57;48.51
62055;BME280;48653;51.742;-1.256;2023-02-11T10:38:29;103014.28;;;10.00;48.81
62055;BME280;48653;51.742;-1.256;2023-02-11T10:40:54;103013.50;;;10.38;47.26
62055;BME280;48653;51.742;-1.256;2023-02-11T10:43:23;103014.80;;;10.14;48.25
62055;BME280;48653;51.742;-1.256;2023-02-11T10:45:46;103016.79;;;10.48;48.06
62055;BME280;48653;51.742;-1.256;2023-02-11T10:50:34;103015.23;;;10.60;46.48
62055;BME280;48653;51.742;-1.256;2023-02-11T10:53:12;103015.34;;;10.93;46.64
62055;BME280;48653;51.742;-1.256;2023-02-11T10:55:26;103013.62;;;10.74;45.69
62055;BME280;48653;51.742;-1.256;2023-02-11T10:58:00;103012.68;;;9.89;47.64
62055;BME280;48653;51.742;-1.256;2023-02-11T11:00:29;103018.40;;;10.30;47.15
62055;BME280;48653;51.742;-1.256;2023-02-11T11:02:42;103020.62;;;10.75;45.97
62055;BME280;48653;51.742;-1.256;2023-02-11T11:05:14;103017.63;;;10.13;46.35
62055;BME280;48653;51.742;-1.256;2023-02-11T11:07:32;103004.32;;;9.84;47.27
62055;BME280;48653;51.742;-1.256;2023-02-11T11:09:59;103005.57;;;9.93;47.46
62055;BME280;48653;51.742;-1.256;2023-02-11T11:12:30;103004.04;;;9.81;47.17
62055;BME280;48653;51.742;-1.256;2023-02-11T11:14:53;103015.05;;;9.50;47.49
62055;BME280;48653;51.742;-1.256;2023-02-11T11:17:17;103018.09;;;9.00;48.24
62055;BME280;48653;51.742;-1.256;2023-02-11T11:19:37;103026.67;;;9.50;47.81
62055;BME280;48653;51.742;-1.256;2023-02-11T11:22:03;103025.97;;;10.59;45.83
62055;BME280;48653;51.742;-1.256;2023-02-11T11:24:28;103023.09;;;10.66;45.60
62055;BME280;48653;51.742;-1.256;2023-02-11T11:26:54;103019.42;;;10.39;45.81
62055;BME280;48653;51.742;-1.256;2023-02-11T11:29:19;103019.52;;;10.07;46.17
62055;BME280;48653;51.742;-1.256;2023-02-11T11:31:48;103021.47;;;10.78;45.17
62055;BME280;48653;51.742;-1.256;2023-02-11T11:34:16;103011.26;;;9.92;46.10
62055;BME280;48653;51.742;-1.256;2023-02-11T11:36:37;103014.35;;;10.60;45.52
62055;BME280;48653;51.742;-1.256;2023-02-11T11:39:00;103016.06;;;9.84;45.67
62055;BME280;48653;51.742;-1.256;2023-02-11T11:41:25;103009.02;;;10.10;45.88
62055;BME280;48653;51.742;-1.256;2023-02-11T11:43:59;103006.84;;;10.33;45.18
62055;BME280;48653;51.742;-1.256;2023-02-11T11:46:20;103001.42;;;9.36;45.40
62055;BME280;48653;51.742;-1.256;2023-02-11T11:48:41;103003.13;;;10.00;44.94
62055;BME280;48653;51.742;-1.256;2023-02-11T11:51:07;103009.18;;;10.18;45.05
62055;BME280;48653;51.742;-1.256;2023-02-11T11:53:34;103010.04;;;10.29;44.33
62055;BME280;48653;51.742;-1.256;2023-02-11T11:55:58;103012.98;;;10.33;44.29
62055;BME280;48653;51.742;-1.256;2023-02-11T11:58:21;103009.33;;;9.95;43.70
62055;BME280;48653;51.742;-1.256;2023-02-11T12:00:52;103012.79;;;11.01;44.07
62055;BME280;48653;51.742;-1.256;2023-02-11T12:03:31;103007.74;;;11.08;42.61
62055;BME280;48653;51.742;-1.256;2023-02-11T12:05:40;103005.27;;;11.31;41.11
62055;BME280;48653;51.742;-1.256;2023-02-11T12:08:08;103001.84;;;11.34;41.76
62055;BME280;48653;51.742;-1.256;2023-02-11T12:10:32;103003.66;;;11.77;40.86
62055;BME280;48653;51.742;-1.256;2023-02-11T12:12:55;103003.69;;;11.71;39.68
62055;BME280;48653;51.742;-1.256;2023-02-11T12:15:25;103004.07;;;12.93;39.59
62055;BME280;48653;51.742;-1.256;2023-02-11T12:17:50;102999.04;;;12.39;40.28
62055;BME280;48653;51.742;-1.256;2023-02-11T12:20:16;102998.52;;;13.14;38.66
62055;BME280;48653;51.742;-1.256;2023-02-11T12:22:39;102998.99;;;13.00;38.41
62055;BME280;48653;51.742;-1.256;2023-02-11T12:25:08;102998.95;;;11.54;40.98
62055;BME280;48653;51.742;-1.256;2023-02-11T12:27:27;102992.42;;;12.42;40.70
62055;BME280;48653;51.742;-1.256;2023-02-11T12:29:56;102987.94;;;12.57;39.56
62055;BME280;48653;51.742;-1.256;2023-02-11T12:32:20;102986.37;;;12.39;39.14
62055;BME280;48653;51.742;-1.256;2023-02-11T12:37:06;102983.30;;;12.67;39.98
62055;BME280;48653;51.742;-1.256;2023-02-11T12:39:32;102983.93;;;13.21;39.60
62055;BME280;48653;51.742;-1.256;2023-02-11T12:42:02;102980.13;;;14.12;38.61
62055;BME280;48653;51.742;-1.256;2023-02-11T12:44:20;102977.29;;;14.72;37.13
62055;BME280;48653;51.742;-1.256;2023-02-11T12:46:42;102983.21;;;14.33;36.16
62055;BME280;48653;51.742;-1.256;2023-02-11T12:49:23;102985.25;;;12.98;38.12
62055;BME280;48653;51.742;-1.256;2023-02-11T12:51:40;102982.44;;;12.57;39.23
62055;BME280;48653;51.742;-1.256;2023-02-11T12:54:05;102980.14;;;12.55;39.36
62055;BME280;48653;51.742;-1.256;2023-02-11T12:56:23;102980.04;;;12.50;39.28